Terminal Aerodrome Forecast
Issued by NWS Oklahoma City, OK

Home | Current Version | Previous Version | Text Only | Print | Product List | Glossary On
Versions: 1 2 3 4 5 6 7 8 9 10 11 12 13 14 15 16 17 18 19 20 21 22 23 24 25 26 27
000
FTUS44 KOUN 021725
TAFOUN
TAF
KOUN 021725Z 0218/0318 18010KT P6SM SCT070 BKN150
      TEMPO 0218/0220 -SHRA BKN070
     FM022200 16006KT P6SM SCT120 SCT250
     FM031200 18009KT P6SM BKN070 BKN120=

USA.gov is the U.S. government's official web portal to all federal, state and local government web resources and services.